sensor_id;sensor_type;location;lat;lon;timestamp;temperature;humidity
12309;DHT22;6217;48.150;17.142;2022-08-04T00:01:06;23.60;54.60
12309;DHT22;6217;48.150;17.142;2022-08-04T00:09:51;23.40;54.50
12309;DHT22;6217;48.150;17.142;2022-08-04T00:14:05;23.30;54.60
12309;DHT22;6217;48.150;17.142;2022-08-04T00:18:14;23.30;54.10
12309;DHT22;6217;48.150;17.142;2022-08-04T00:22:26;23.20;54.30
12309;DHT22;6217;48.150;17.142;2022-08-04T00:26:33;23.10;54.60
12309;DHT22;6217;48.150;17.142;2022-08-04T00:30:40;23.10;54.70
12309;DHT22;6217;48.150;17.142;2022-08-04T00:34:47;22.90;55.00
12309;DHT22;6217;48.150;17.142;2022-08-04T00:38:54;22.80;55.00
12309;DHT22;6217;48.150;17.142;2022-08-04T00:48:03;22.60;55.30
12309;DHT22;6217;48.150;17.142;2022-08-04T01:01:45;22.40;55.30
12309;DHT22;6217;48.150;17.142;2022-08-04T01:06:39;22.40;55.30
12309;DHT22;6217;48.150;17.142;2022-08-04T01:16:04;22.30;55.50
12309;DHT22;6217;48.150;17.142;2022-08-04T01:20:14;22.40;55.30
12309;DHT22;6217;48.150;17.142;2022-08-04T01:24:29;22.40;55.10
12309;DHT22;6217;48.150;17.142;2022-08-04T01:29:07;22.50;55.00
12309;DHT22;6217;48.150;17.142;2022-08-04T01:33:16;22.40;55.30
12309;DHT22;6217;48.150;17.142;2022-08-04T01:41:52;22.20;56.00
12309;DHT22;6217;48.150;17.142;2022-08-04T01:46:00;22.20;56.30
12309;DHT22;6217;48.150;17.142;2022-08-04T01:50:11;22.20;56.50
12309;DHT22;6217;48.150;17.142;2022-08-04T01:54:18;22.10;56.70
12309;DHT22;6217;48.150;17.142;2022-08-04T01:58:28;22.10;56.70
12309;DHT22;6217;48.150;17.142;2022-08-04T02:02:35;22.20;56.60
12309;DHT22;6217;48.150;17.142;2022-08-04T02:11:20;22.20;56.40
12309;DHT22;6217;48.150;17.142;2022-08-04T02:24:15;22.20;57.00
12309;DHT22;6217;48.150;17.142;2022-08-04T02:28:34;22.10;57.00
12309;DHT22;6217;48.150;17.142;2022-08-04T02:33:02;22.00;57.20
12309;DHT22;6217;48.150;17.142;2022-08-04T02:37:10;22.00;57.40
12309;DHT22;6217;48.150;17.142;2022-08-04T02:41:18;22.00;57.50
12309;DHT22;6217;48.150;17.142;2022-08-04T02:45:27;21.90;57.60
12309;DHT22;6217;48.150;17.142;2022-08-04T02:49:37;21.90;57.70
12309;DHT22;6217;48.150;17.142;2022-08-04T02:53:45;21.80;57.60
12309;DHT22;6217;48.150;17.142;2022-08-04T02:57:53;21.80;57.80
12309;DHT22;6217;48.150;17.142;2022-08-04T03:02:01;21.80;58.20
12309;DHT22;6217;48.150;17.142;2022-08-04T03:10:54;21.70;58.90
12309;DHT22;6217;48.150;17.142;2022-08-04T03:48:16;21.50;60.20
12309;DHT22;6217;48.150;17.142;2022-08-04T04:01:55;21.60;59.10
12309;DHT22;6217;48.150;17.142;2022-08-04T04:34:18;22.10;57.60
12309;DHT22;6217;48.150;17.142;2022-08-04T04:52:54;23.30;55.20
12309;DHT22;6217;48.150;17.142;2022-08-04T04:57:13;23.30;55.30
12309;DHT22;6217;48.150;17.142;2022-08-04T05:01:25;23.40;55.20
12309;DHT22;6217;48.150;17.142;2022-08-04T05:15:24;23.80;55.00
12309;DHT22;6217;48.150;17.142;2022-08-04T05:20:06;24.00;54.70
12309;DHT22;6217;48.150;17.142;2022-08-04T05:24:18;24.10;54.50
12309;DHT22;6217;48.150;17.142;2022-08-04T05:28:42;24.30;54.30
12309;DHT22;6217;48.150;17.142;2022-08-04T05:33:03;24.50;54.00
12309;DHT22;6217;48.150;17.142;2022-08-04T05:37:16;24.60;53.90
12309;DHT22;6217;48.150;17.142;2022-08-04T05:41:26;24.80;53.60
12309;DHT22;6217;48.150;17.142;2022-08-04T05:45:34;25.00;53.40
12309;DHT22;6217;48.150;17.142;2022-08-04T05:49:40;25.20;53.10
12309;DHT22;6217;48.150;17.142;2022-08-04T05:53:48;25.90;51.80
12309;DHT22;6217;48.150;17.142;2022-08-04T05:57:57;26.20;50.80
12309;DHT22;6217;48.150;17.142;2022-08-04T06:02:05;26.20;51.10
12309;DHT22;6217;48.150;17.142;2022-08-04T06:06:13;26.40;50.70
12309;DHT22;6217;48.150;17.142;2022-08-04T06:10:20;26.80;49.80
12309;DHT22;6217;48.150;17.142;2022-08-04T06:14:31;27.40;49.20
12309;DHT22;6217;48.150;17.142;2022-08-04T06:18:43;29.80;46.30
12309;DHT22;6217;48.150;17.142;2022-08-04T06:22:53;30.70;43.00
12309;DHT22;6217;48.150;17.142;2022-08-04T06:27:11;30.30;42.80
12309;DHT22;6217;48.150;17.142;2022-08-04T06:31:19;29.20;45.00
12309;DHT22;6217;48.150;17.142;2022-08-04T06:35:37;28.90;45.30
12309;DHT22;6217;48.150;17.142;2022-08-04T06:39:44;28.50;46.10
12309;DHT22;6217;48.150;17.142;2022-08-04T06:43:52;28.40;45.90
12309;DHT22;6217;48.150;17.142;2022-08-04T06:48:00;28.20;46.70
12309;DHT22;6217;48.150;17.142;2022-08-04T06:52:07;28.60;45.90
12309;DHT22;6217;48.150;17.142;2022-08-04T06:56:17;28.50;45.80
12309;DHT22;6217;48.150;17.142;2022-08-04T07:00:25;30.00;44.30
12309;DHT22;6217;48.150;17.142;2022-08-04T07:04:31;30.20;42.70
12309;DHT22;6217;48.150;17.142;2022-08-04T07:08:39;30.30;43.20
12309;DHT22;6217;48.150;17.142;2022-08-04T07:12:46;29.70;42.90
12309;DHT22;6217;48.150;17.142;2022-08-04T07:16:53;29.00;43.60
12309;DHT22;6217;48.150;17.142;2022-08-04T07:21:00;28.50;44.30
12309;DHT22;6217;48.150;17.142;2022-08-04T07:25:10;28.20;44.60
12309;DHT22;6217;48.150;17.142;2022-08-04T07:29:18;28.10;44.60
12309;DHT22;6217;48.150;17.142;2022-08-04T07:33:25;28.20;44.40
12309;DHT22;6217;48.150;17.142;2022-08-04T07:37:31;28.50;43.90
12309;DHT22;6217;48.150;17.142;2022-08-04T07:41:40;28.80;43.70
12309;DHT22;6217;48.150;17.142;2022-08-04T07:45:47;28.90;43.30
12309;DHT22;6217;48.150;17.142;2022-08-04T07:49:54;29.80;43.10
12309;DHT22;6217;48.150;17.142;2022-08-04T07:54:01;30.30;41.90
12309;DHT22;6217;48.150;17.142;2022-08-04T07:58:10;30.00;42.10
12309;DHT22;6217;48.150;17.142;2022-08-04T08:02:18;30.10;42.00
12309;DHT22;6217;48.150;17.142;2022-08-04T08:06:26;29.90;42.20
12309;DHT22;6217;48.150;17.142;2022-08-04T08:10:34;29.80;42.30
12309;DHT22;6217;48.150;17.142;2022-08-04T08:14:42;29.90;42.30
12309;DHT22;6217;48.150;17.142;2022-08-04T08:18:48;30.10;42.10
12309;DHT22;6217;48.150;17.142;2022-08-04T08:22:55;30.40;41.90
12309;DHT22;6217;48.150;17.142;2022-08-04T08:27:02;30.20;42.10
12309;DHT22;6217;48.150;17.142;2022-08-04T08:31:09;30.00;42.30
12309;DHT22;6217;48.150;17.142;2022-08-04T08:35:16;29.90;42.40
12309;DHT22;6217;48.150;17.142;2022-08-04T08:39:38;29.70;42.40
12309;DHT22;6217;48.150;17.142;2022-08-04T09:11:15;30.10;40.60
12309;DHT22;6217;48.150;17.142;2022-08-04T09:15:46;30.20;40.20
12309;DHT22;6217;48.150;17.142;2022-08-04T09:20:05;30.30;39.60
12309;DHT22;6217;48.150;17.142;2022-08-04T09:24:21;30.40;39.70
12309;DHT22;6217;48.150;17.142;2022-08-04T09:33:17;30.70;39.20
12309;DHT22;6217;48.150;17.142;2022-08-04T09:42:40;30.80;39.30
12309;DHT22;6217;48.150;17.142;2022-08-04T09:47:12;31.00;38.80
12309;DHT22;6217;48.150;17.142;2022-08-04T09:56:09;31.20;37.90
12309;DHT22;6217;48.150;17.142;2022-08-04T10:00:29;31.50;37.80
12309;DHT22;6217;48.150;17.142;2022-08-04T10:04:41;31.60;37.20
12309;DHT22;6217;48.150;17.142;2022-08-04T10:31:01;31.90;35.50
12309;DHT22;6217;48.150;17.142;2022-08-04T10:35:14;32.00;35.70
12309;DHT22;6217;48.150;17.142;2022-08-04T10:39:55;31.90;35.40
12309;DHT22;6217;48.150;17.142;2022-08-04T10:49:23;32.10;35.00
12309;DHT22;6217;48.150;17.142;2022-08-04T10:53:37;32.30;34.60
12309;DHT22;6217;48.150;17.142;2022-08-04T10:57:51;32.50;34.20
12309;DHT22;6217;48.150;17.142;2022-08-04T11:06:37;32.30;33.60
12309;DHT22;6217;48.150;17.142;2022-08-04T11:10:58;32.30;33.80
12309;DHT22;6217;48.150;17.142;2022-08-04T11:15:08;32.40;33.40
12309;DHT22;6217;48.150;17.142;2022-08-04T11:19:30;32.50;33.40
12309;DHT22;6217;48.150;17.142;2022-08-04T11:24:01;32.50;32.90
12309;DHT22;6217;48.150;17.142;2022-08-04T11:33:08;32.60;33.30
12309;DHT22;6217;48.150;17.142;2022-08-04T11:37:53;32.60;33.70
12309;DHT22;6217;48.150;17.142;2022-08-04T11:46:39;32.70;33.10
12309;DHT22;6217;48.150;17.142;2022-08-04T11:50:52;32.70;32.60
12309;DHT22;6217;48.150;17.142;2022-08-04T11:55:04;32.70;32.40
12309;DHT22;6217;48.150;17.142;2022-08-04T11:59:13;32.70;31.90
12309;DHT22;6217;48.150;17.142;2022-08-04T12:03:45;32.80;31.90
12309;DHT22;6217;48.150;17.142;2022-08-04T12:17:11;32.90;31.20
12309;DHT22;6217;48.150;17.142;2022-08-04T12:21:43;33.00;30.30
12309;DHT22;6217;48.150;17.142;2022-08-04T12:25:59;33.10;29.40
12309;DHT22;6217;48.150;17.142;2022-08-04T12:30:10;33.20;29.50
12309;DHT22;6217;48.150;17.142;2022-08-04T12:39:19;33.30;28.90
12309;DHT22;6217;48.150;17.142;2022-08-04T12:47:44;33.20;28.60
12309;DHT22;6217;48.150;17.142;2022-08-04T12:51:51;33.10;28.80
12309;DHT22;6217;48.150;17.142;2022-08-04T12:55:59;33.00;28.40
12309;DHT22;6217;48.150;17.142;2022-08-04T13:00:07;32.80;28.80
12309;DHT22;6217;48.150;17.142;2022-08-04T13:04:18;32.80;29.20
12309;DHT22;6217;48.150;17.142;2022-08-04T13:08:27;32.80;29.20
12309;DHT22;6217;48.150;17.142;2022-08-04T13:12:33;32.80;29.20
12309;DHT22;6217;48.150;17.142;2022-08-04T13:16:40;32.80;29.10
12309;DHT22;6217;48.150;17.142;2022-08-04T13:20:47;32.80;29.00
12309;DHT22;6217;48.150;17.142;2022-08-04T13:24:54;32.90;28.50
12309;DHT22;6217;48.150;17.142;2022-08-04T13:29:05;33.00;28.30
12309;DHT22;6217;48.150;17.142;2022-08-04T13:33:15;33.00;28.40
12309;DHT22;6217;48.150;17.142;2022-08-04T13:37:31;33.10;28.80
12309;DHT22;6217;48.150;17.142;2022-08-04T13:41:44;33.10;28.30
12309;DHT22;6217;48.150;17.142;2022-08-04T13:45:59;33.10;28.40
12309;DHT22;6217;48.150;17.142;2022-08-04T13:54:37;33.00;28.30
12309;DHT22;6217;48.150;17.142;2022-08-04T13:58:46;33.00;28.80
12309;DHT22;6217;48.150;17.142;2022-08-04T14:03:03;32.90;28.30
12309;DHT22;6217;48.150;17.142;2022-08-04T14:07:15;32.80;28.10
12309;DHT22;6217;48.150;17.142;2022-08-04T14:11:38;32.80;27.90
12309;DHT22;6217;48.150;17.142;2022-08-04T14:15:45;32.70;27.50
12309;DHT22;6217;48.150;17.142;2022-08-04T14:19:59;32.60;27.90
12309;DHT22;6217;48.150;17.142;2022-08-04T14:24:06;32.50;28.40
12309;DHT22;6217;48.150;17.142;2022-08-04T14:28:28;32.50;28.60
12309;DHT22;6217;48.150;17.142;2022-08-04T14:33:10;32.50;29.10
12309;DHT22;6217;48.150;17.142;2022-08-04T14:37:17;32.40;28.80
12309;DHT22;6217;48.150;17.142;2022-08-04T14:41:30;32.30;28.90
12309;DHT22;6217;48.150;17.142;2022-08-04T14:45:50;32.30;28.80
12309;DHT22;6217;48.150;17.142;2022-08-04T14:49:59;32.30;28.80
12309;DHT22;6217;48.150;17.142;2022-08-04T14:54:06;32.30;28.50
12309;DHT22;6217;48.150;17.142;2022-08-04T14:58:28;32.30;28.30
12309;DHT22;6217;48.150;17.142;2022-08-04T15:02:36;32.20;28.40
12309;DHT22;6217;48.150;17.142;2022-08-04T15:06:46;32.20;28.60
12309;DHT22;6217;48.150;17.142;2022-08-04T15:10:53;32.20;28.80
12309;DHT22;6217;48.150;17.142;2022-08-04T15:15:03;32.20;29.00
12309;DHT22;6217;48.150;17.142;2022-08-04T15:19:10;32.10;29.00
12309;DHT22;6217;48.150;17.142;2022-08-04T15:23:17;32.10;29.20
12309;DHT22;6217;48.150;17.142;2022-08-04T15:27:27;32.10;29.30
12309;DHT22;6217;48.150;17.142;2022-08-04T15:31:37;32.00;29.40
12309;DHT22;6217;48.150;17.142;2022-08-04T15:35:45;32.00;29.50
12309;DHT22;6217;48.150;17.142;2022-08-04T15:40:08;31.90;29.50
12309;DHT22;6217;48.150;17.142;2022-08-04T15:44:48;31.80;29.50
12309;DHT22;6217;48.150;17.142;2022-08-04T15:49:23;31.80;30.00
12309;DHT22;6217;48.150;17.142;2022-08-04T15:58:03;31.60;29.50
12309;DHT22;6217;48.150;17.142;2022-08-04T16:10:44;31.50;29.50
12309;DHT22;6217;48.150;17.142;2022-08-04T16:14:51;31.50;29.60
12309;DHT22;6217;48.150;17.142;2022-08-04T16:19:05;31.40;29.70
12309;DHT22;6217;48.150;17.142;2022-08-04T16:23:28;31.40;29.50
12309;DHT22;6217;48.150;17.142;2022-08-04T16:27:45;31.50;29.50
12309;DHT22;6217;48.150;17.142;2022-08-04T16:36:11;31.30;30.00
12309;DHT22;6217;48.150;17.142;2022-08-04T16:44:35;31.30;30.30
12309;DHT22;6217;48.150;17.142;2022-08-04T16:49:05;31.20;30.50
12309;DHT22;6217;48.150;17.142;2022-08-04T16:53:12;31.10;31.40
12309;DHT22;6217;48.150;17.142;2022-08-04T16:57:18;31.00;31.50
12309;DHT22;6217;48.150;17.142;2022-08-04T17:01:25;30.90;31.70
12309;DHT22;6217;48.150;17.142;2022-08-04T17:05:34;30.90;31.40
12309;DHT22;6217;48.150;17.142;2022-08-04T17:09:49;31.00;31.10
12309;DHT22;6217;48.150;17.142;2022-08-04T17:13:55;31.00;31.00
12309;DHT22;6217;48.150;17.142;2022-08-04T17:18:16;31.00;30.90
12309;DHT22;6217;48.150;17.142;2022-08-04T17:22:24;31.00;30.70
12309;DHT22;6217;48.150;17.142;2022-08-04T17:26:33;31.00;30.70
12309;DHT22;6217;48.150;17.142;2022-08-04T17:30:41;31.00;30.60
12309;DHT22;6217;48.150;17.142;2022-08-04T17:34:49;31.00;30.50
12309;DHT22;6217;48.150;17.142;2022-08-04T17:38:58;31.00;30.50
12309;DHT22;6217;48.150;17.142;2022-08-04T17:43:08;31.00;30.70
12309;DHT22;6217;48.150;17.142;2022-08-04T17:47:17;31.00;30.90
12309;DHT22;6217;48.150;17.142;2022-08-04T17:51:30;30.90;31.20
12309;DHT22;6217;48.150;17.142;2022-08-04T17:59:52;30.80;31.30
12309;DHT22;6217;48.150;17.142;2022-08-04T18:08:53;30.80;30.90
12309;DHT22;6217;48.150;17.142;2022-08-04T18:13:06;30.70;30.70
12309;DHT22;6217;48.150;17.142;2022-08-04T18:17:28;30.70;30.70
12309;DHT22;6217;48.150;17.142;2022-08-04T18:21:35;30.60;30.60
12309;DHT22;6217;48.150;17.142;2022-08-04T18:25:45;30.50;30.90
12309;DHT22;6217;48.150;17.142;2022-08-04T18:29:52;30.30;31.70
12309;DHT22;6217;48.150;17.142;2022-08-04T18:33:59;30.10;32.30
12309;DHT22;6217;48.150;17.142;2022-08-04T18:38:06;29.90;32.80
12309;DHT22;6217;48.150;17.142;2022-08-04T18:42:12;29.70;33.00
12309;DHT22;6217;48.150;17.142;2022-08-04T18:46:18;29.60;33.20
12309;DHT22;6217;48.150;17.142;2022-08-04T18:50:24;29.40;33.80
12309;DHT22;6217;48.150;17.142;2022-08-04T18:54:30;29.20;34.30
12309;DHT22;6217;48.150;17.142;2022-08-04T18:58:37;29.00;34.60
12309;DHT22;6217;48.150;17.142;2022-08-04T19:02:43;28.80;34.90
12309;DHT22;6217;48.150;17.142;2022-08-04T19:06:50;28.70;35.30
12309;DHT22;6217;48.150;17.142;2022-08-04T19:10:57;28.50;35.60
12309;DHT22;6217;48.150;17.142;2022-08-04T19:15:05;28.40;36.00
12309;DHT22;6217;48.150;17.142;2022-08-04T19:19:12;28.20;36.40
12309;DHT22;6217;48.150;17.142;2022-08-04T19:23:19;28.10;36.80
12309;DHT22;6217;48.150;17.142;2022-08-04T19:27:25;28.00;37.10
12309;DHT22;6217;48.150;17.142;2022-08-04T19:31:32;27.80;37.40
12309;DHT22;6217;48.150;17.142;2022-08-04T19:35:38;27.70;37.70
12309;DHT22;6217;48.150;17.142;2022-08-04T19:39:46;27.60;38.00
12309;DHT22;6217;48.150;17.142;2022-08-04T19:43:53;27.60;38.40
12309;DHT22;6217;48.150;17.142;2022-08-04T19:48:00;27.50;38.60
12309;DHT22;6217;48.150;17.142;2022-08-04T19:52:06;27.40;38.90
12309;DHT22;6217;48.150;17.142;2022-08-04T19:56:12;27.30;39.20
12309;DHT22;6217;48.150;17.142;2022-08-04T20:00:21;27.30;40.30
12309;DHT22;6217;48.150;17.142;2022-08-04T20:04:28;27.10;39.90
12309;DHT22;6217;48.150;17.142;2022-08-04T20:08:34;27.10;40.20
12309;DHT22;6217;48.150;17.142;2022-08-04T20:12:40;27.00;40.40
12309;DHT22;6217;48.150;17.142;2022-08-04T20:16:46;27.00;40.60
12309;DHT22;6217;48.150;17.142;2022-08-04T20:20:53;26.90;40.90
12309;DHT22;6217;48.150;17.142;2022-08-04T20:24:59;26.80;41.40
12309;DHT22;6217;48.150;17.142;2022-08-04T20:29:05;26.80;41.80
12309;DHT22;6217;48.150;17.142;2022-08-04T20:33:11;26.70;42.00
12309;DHT22;6217;48.150;17.142;2022-08-04T20:37:19;26.60;42.10
12309;DHT22;6217;48.150;17.142;2022-08-04T20:41:27;26.60;42.20
12309;DHT22;6217;48.150;17.142;2022-08-04T20:45:33;26.50;42.20
12309;DHT22;6217;48.150;17.142;2022-08-04T20:49:39;26.50;42.50
12309;DHT22;6217;48.150;17.142;2022-08-04T20:53:46;26.40;42.60
12309;DHT22;6217;48.150;17.142;2022-08-04T20:57:52;26.40;42.60
12309;DHT22;6217;48.150;17.142;2022-08-04T21:01:58;26.30;42.70
12309;DHT22;6217;48.150;17.142;2022-08-04T21:06:04;26.20;43.00
12309;DHT22;6217;48.150;17.142;2022-08-04T21:10:11;26.20;43.10
12309;DHT22;6217;48.150;17.142;2022-08-04T21:14:17;26.10;43.20
12309;DHT22;6217;48.150;17.142;2022-08-04T21:18:24;26.10;43.40
12309;DHT22;6217;48.150;17.142;2022-08-04T21:22:30;26.00;43.50
12309;DHT22;6217;48.150;17.142;2022-08-04T21:26:36;26.00;43.50
12309;DHT22;6217;48.150;17.142;2022-08-04T21:30:42;26.00;43.50
12309;DHT22;6217;48.150;17.142;2022-08-04T21:34:49;25.90;43.60
12309;DHT22;6217;48.150;17.142;2022-08-04T21:38:55;25.90;43.80
12309;DHT22;6217;48.150;17.142;2022-08-04T21:43:01;25.90;44.20
12309;DHT22;6217;48.150;17.142;2022-08-04T21:47:07;25.80;44.10
12309;DHT22;6217;48.150;17.142;2022-08-04T21:51:24;25.80;44.30
12309;DHT22;6217;48.150;17.142;2022-08-04T21:55:32;25.70;44.40
12309;DHT22;6217;48.150;17.142;2022-08-04T21:59:39;25.70;44.40
12309;DHT22;6217;48.150;17.142;2022-08-04T22:03:46;25.70;44.50
12309;DHT22;6217;48.150;17.142;2022-08-04T22:07:53;25.70;44.70
12309;DHT22;6217;48.150;17.142;2022-08-04T22:11:59;25.70;44.70
12309;DHT22;6217;48.150;17.142;2022-08-04T22:16:05;25.70;44.60
12309;DHT22;6217;48.150;17.142;2022-08-04T22:20:12;25.60;44.70
12309;DHT22;6217;48.150;17.142;2022-08-04T22:24:20;25.60;44.80
12309;DHT22;6217;48.150;17.142;2022-08-04T22:28:26;25.60;44.80
12309;DHT22;6217;48.150;17.142;2022-08-04T22:32:32;25.60;44.80
12309;DHT22;6217;48.150;17.142;2022-08-04T22:36:38;25.50;44.70
12309;DHT22;6217;48.150;17.142;2022-08-04T22:40:44;25.50;44.80
12309;DHT22;6217;48.150;17.142;2022-08-04T22:44:50;25.50;44.90
12309;DHT22;6217;48.150;17.142;2022-08-04T22:48:57;25.50;45.00
12309;DHT22;6217;48.150;17.142;2022-08-04T22:53:03;25.50;45.10
12309;DHT22;6217;48.150;17.142;2022-08-04T22:57:09;25.40;45.10
12309;DHT22;6217;48.150;17.142;2022-08-04T23:01:15;25.40;45.20
12309;DHT22;6217;48.150;17.142;2022-08-04T23:05:22;25.30;45.40
12309;DHT22;6217;48.150;17.142;2022-08-04T23:09:28;25.30;45.60
12309;DHT22;6217;48.150;17.142;2022-08-04T23:13:35;25.30;45.90
12309;DHT22;6217;48.150;17.142;2022-08-04T23:17:41;25.20;46.00
12309;DHT22;6217;48.150;17.142;2022-08-04T23:21:47;25.20;46.50
12309;DHT22;6217;48.150;17.142;2022-08-04T23:25:53;25.10;46.70
12309;DHT22;6217;48.150;17.142;2022-08-04T23:30:00;25.10;46.90
12309;DHT22;6217;48.150;17.142;2022-08-04T23:34:06;24.90;47.20
12309;DHT22;6217;48.150;17.142;2022-08-04T23:38:12;24.90;47.50
12309;DHT22;6217;48.150;17.142;2022-08-04T23:42:18;24.80;47.80
12309;DHT22;6217;48.150;17.142;2022-08-04T23:46:24;24.80;48.10
12309;DHT22;6217;48.150;17.142;2022-08-04T23:50:31;24.70;48.40
12309;DHT22;6217;48.150;17.142;2022-08-04T23:54:37;24.70;48.50
12309;DHT22;6217;48.150;17.142;2022-08-04T23:58:43;24.60;48.50
